createdAt,value
2018-04-02T00:00:50.129Z,1002.17
2018-04-02T00:01:50.102Z,1002.17
2018-04-02T00:02:50.075Z,1002.2
2018-04-02T00:03:50.048Z,1002.19
2018-04-02T00:04:50.020Z,1002.2
2018-04-02T00:05:49.994Z,1002.19
2018-04-02T00:06:49.967Z,1002.19
2018-04-02T00:07:49.938Z,1002.19
2018-04-02T00:08:49.942Z,1002.18
2018-04-02T00:09:49.884Z,1002.19
2018-04-02T00:10:49.858Z,1002.17
2018-04-02T00:11:49.829Z,1002.2
2018-04-02T00:12:49.803Z,1002.16
2018-04-02T00:13:49.778Z,1002.2
2018-04-02T00:14:49.748Z,1002.19
2018-04-02T00:15:49.725Z,1002.23
2018-04-02T00:16:49.693Z,1002.21
2018-04-02T00:17:49.667Z,1002.22
2018-04-02T00:18:49.639Z,1002.2
2018-04-02T00:19:49.612Z,1002.2
2018-04-02T00:20:49.586Z,1002.21
2018-04-02T00:21:49.557Z,1002.22
2018-04-02T00:22:49.530Z,1002.18
2018-04-02T00:23:49.502Z,1002.21
2018-04-02T00:24:49.476Z,1002.18
2018-04-02T00:25:49.447Z,1002.15
2018-04-02T00:26:49.422Z,1002.11
2018-04-02T00:27:49.396Z,1002.1
2018-04-02T00:28:49.367Z,1002.11
2018-04-02T00:29:49.339Z,1002.09
2018-04-02T00:30:49.312Z,1002.1
2018-04-02T00:31:49.285Z,1002.12
2018-04-02T00:32:49.260Z,1002.1
2018-04-02T00:33:49.229Z,1002.11
2018-04-02T00:34:49.203Z,1002.11
2018-04-02T00:35:49.175Z,1002.07
2018-04-02T00:36:49.147Z,1002.08
2018-04-02T00:37:49.120Z,1002.06
2018-04-02T00:38:49.092Z,1002.1
2018-04-02T00:39:49.065Z,1002.06
2018-04-02T00:40:49.035Z,1002.09
2018-04-02T00:41:49.009Z,1002.07
2018-04-02T00:42:48.982Z,1002.06
2018-04-02T00:43:48.954Z,1002.08
2018-04-02T00:44:48.926Z,1002.06
2018-04-02T00:45:48.899Z,1002.07
2018-04-02T00:46:48.875Z,1002.11
2018-04-02T00:47:48.844Z,1002.09
2018-04-02T00:48:48.867Z,1002.1
2018-04-02T00:49:48.789Z,1002.11
2018-04-02T00:50:48.761Z,1002.13
2018-04-02T00:51:48.736Z,1002.1
2018-04-02T00:52:48.706Z,1002.1
2018-04-02T00:53:48.680Z,1002.11
2018-04-02T00:54:48.650Z,1002.11
2018-04-02T00:55:48.622Z,1002.13
2018-04-02T00:56:48.601Z,1002.15
2018-04-02T00:57:48.567Z,1002.12
2018-04-02T00:58:48.538Z,1002.11
2018-04-02T00:59:48.511Z,1002.11
2018-04-02T01:00:48.484Z,1002.11
2018-04-02T01:01:48.457Z,1002.18
2018-04-02T01:02:48.429Z,1002.15
2018-04-02T01:03:48.401Z,1002.1
2018-04-02T01:04:48.373Z,1002.12
2018-04-02T01:05:48.346Z,1002.06
2018-04-02T01:06:48.317Z,1002.11
2018-04-02T01:07:48.291Z,1002.07
2018-04-02T01:08:48.269Z,1002.06
2018-04-02T01:09:48.235Z,1001.99
2018-04-02T01:10:48.209Z,1002.02
2018-04-02T01:11:48.179Z,1002.05
2018-04-02T01:12:48.209Z,1001.99
2018-04-02T01:13:48.124Z,1001.97
2018-04-02T01:14:48.097Z,1001.97
2018-04-02T01:15:48.069Z,1002.02
2018-04-02T01:16:48.041Z,1002
2018-04-02T01:17:48.013Z,1002
2018-04-02T01:18:47.991Z,1002
2018-04-02T01:19:47.959Z,1001.99
2018-04-02T01:20:47.930Z,1001.96
2018-04-02T01:21:47.903Z,1001.94
2018-04-02T01:22:47.875Z,1001.99
2018-04-02T01:23:47.848Z,1001.95
2018-04-02T01:24:47.819Z,1001.96
2018-04-02T01:25:47.792Z,1001.97
2018-04-02T01:26:47.765Z,1001.94
2018-04-02T01:27:47.735Z,1001.91
2018-04-02T01:28:47.708Z,1001.91
2018-04-02T01:29:47.681Z,1001.92
2018-04-02T01:30:47.654Z,1001.93
2018-04-02T01:31:47.626Z,1001.88
2018-04-02T01:32:47.597Z,1001.92
2018-04-02T01:33:47.572Z,1001.92
2018-04-02T01:34:47.544Z,1001.89
2018-04-02T01:35:47.522Z,1001.87
2018-04-02T01:36:47.487Z,1001.85
2018-04-02T01:37:47.460Z,1001.81
2018-04-02T01:38:47.430Z,1001.8
2018-04-02T01:39:47.408Z,1001.83
2018-04-02T01:40:47.377Z,1001.84
2018-04-02T01:41:47.347Z,1001.83
2018-04-02T01:42:47.319Z,1001.83
2018-04-02T01:43:47.291Z,1001.81
2018-04-02T01:44:47.266Z,1001.79
2018-04-02T01:45:47.240Z,1001.8
2018-04-02T01:46:47.207Z,1001.79
2018-04-02T01:47:47.180Z,1001.79
2018-04-02T01:48:48.153Z,1001.75
2018-04-02T01:49:47.122Z,1001.8
2018-04-02T01:50:47.097Z,1001.79
2018-04-02T01:51:47.068Z,1001.75
2018-04-02T01:52:47.045Z,1001.75
2018-04-02T01:53:47.012Z,1001.79
2018-04-02T01:54:46.984Z,1001.77
2018-04-02T01:55:46.956Z,1001.73
2018-04-02T01:56:46.928Z,1001.76
2018-04-02T01:57:46.898Z,1001.77
2018-04-02T01:58:46.872Z,1001.76
2018-04-02T01:59:46.844Z,1001.73
2018-04-02T02:00:46.816Z,1001.71
2018-04-02T02:01:46.786Z,1001.71
2018-04-02T02:02:46.758Z,1001.67
2018-04-02T02:03:46.731Z,1001.7
2018-04-02T02:04:46.702Z,1001.69
2018-04-02T02:05:46.675Z,1001.73
2018-04-02T02:06:46.645Z,1001.7
2018-04-02T02:07:46.618Z,1001.67
2018-04-02T02:08:46.589Z,1001.63
2018-04-02T02:09:46.563Z,1001.65
2018-04-02T02:10:46.532Z,1001.58
2018-04-02T02:11:46.502Z,1001.57
2018-04-02T02:12:46.478Z,1001.57
2018-04-02T02:13:46.446Z,1001.55
2018-04-02T02:14:46.419Z,1001.5
2018-04-02T02:15:46.389Z,1001.52
2018-04-02T02:16:46.363Z,1001.5
2018-04-02T02:17:46.333Z,1001.48
2018-04-02T02:18:46.304Z,1001.47
2018-04-02T02:19:46.276Z,1001.42
2018-04-02T02:20:46.248Z,1001.42
2018-04-02T02:21:46.218Z,1001.42
2018-04-02T02:22:46.189Z,1001.37
2018-04-02T02:23:46.160Z,1001.37
2018-04-02T02:24:46.137Z,1001.36
2018-04-02T02:25:46.103Z,1001.35
2018-04-02T02:26:46.074Z,1001.37
2018-04-02T02:27:46.049Z,1001.42
2018-04-02T02:28:46.070Z,1001.37
2018-04-02T02:29:45.989Z,1001.34
2018-04-02T02:30:45.959Z,1001.37
2018-04-02T02:31:45.930Z,1001.31
2018-04-02T02:32:45.903Z,1001.33
2018-04-02T02:33:45.873Z,1001.33
2018-04-02T02:34:45.844Z,1001.32
2018-04-02T02:35:45.816Z,1001.33
2018-04-02T02:36:45.786Z,1001.33
2018-04-02T02:37:45.757Z,1001.32
2018-04-02T02:38:45.729Z,1001.31
2018-04-02T02:39:45.699Z,1001.3
2018-04-02T02:40:45.671Z,1001.27
2018-04-02T02:41:45.642Z,1001.29
2018-04-02T02:42:45.618Z,1001.26
2018-04-02T02:43:45.584Z,1001.28
2018-04-02T02:44:45.554Z,1001.26
2018-04-02T02:45:45.527Z,1001.23
2018-04-02T02:46:45.501Z,1001.25
2018-04-02T02:47:45.470Z,1001.25
2018-04-02T02:48:45.443Z,1001.28
2018-04-02T02:49:45.418Z,1001.27
2018-04-02T02:50:45.382Z,1001.28
2018-04-02T02:51:45.350Z,1001.26
2018-04-02T02:52:45.321Z,1001.24
2018-04-02T02:53:45.292Z,1001.24
2018-04-02T02:54:45.266Z,1001.25
2018-04-02T02:55:45.233Z,1001.25
2018-04-02T02:56:45.205Z,1001.24
2018-04-02T02:57:45.175Z,1001.26
2018-04-02T02:58:45.150Z,1001.24
2018-04-02T02:59:45.117Z,1001.25
2018-04-02T03:00:45.100Z,1001.21
2018-04-02T03:01:45.060Z,1001.2
2018-04-02T03:02:45.029Z,1001.23
2018-04-02T03:03:45.000Z,1001.24
2018-04-02T03:04:44.971Z,1001.21
2018-04-02T03:05:44.942Z,1001.22
2018-04-02T03:06:44.912Z,1001.23
2018-04-02T03:07:44.881Z,1001.2
2018-04-02T03:08:44.853Z,1001.22
2018-04-02T03:09:44.823Z,1001.2
2018-04-02T03:10:44.793Z,1001.25
2018-04-02T03:11:44.767Z,1001.21
2018-04-02T03:12:44.736Z,1001.21
2018-04-02T03:13:44.706Z,1001.18
2018-04-02T03:14:44.678Z,1001.2
2018-04-02T03:15:44.648Z,1001.19
2018-04-02T03:16:44.620Z,1001.15
2018-04-02T03:17:44.588Z,1001.21
2018-04-02T03:18:44.560Z,1001.23
2018-04-02T03:19:44.530Z,1001.28
2018-04-02T03:20:44.501Z,1001.25
2018-04-02T03:21:44.470Z,1001.24
2018-04-02T03:22:44.441Z,1001.24
2018-04-02T03:23:44.412Z,1001.23
2018-04-02T03:24:44.384Z,1001.25
2018-04-02T03:25:44.353Z,1001.25
2018-04-02T03:26:44.326Z,1001.21
2018-04-02T03:27:44.296Z,1001.15
2018-04-02T03:28:44.265Z,1001.12
2018-04-02T03:29:44.237Z,1001.11
2018-04-02T03:30:44.208Z,1001.1
2018-04-02T03:31:44.185Z,1001.09
2018-04-02T03:32:44.147Z,1001.04
2018-04-02T03:33:44.119Z,1001.06
2018-04-02T03:34:44.091Z,1000.99
2018-04-02T03:35:44.060Z,1001.01
2018-04-02T03:36:44.029Z,1001.01
2018-04-02T03:37:44.002Z,1001.01
2018-04-02T03:38:43.976Z,1001
2018-04-02T03:39:43.951Z,1001.02
2018-04-02T03:40:43.913Z,1000.99
2018-04-02T03:41:43.883Z,1000.99
2018-04-02T03:42:43.856Z,1000.98
2018-04-02T03:43:43.825Z,1000.98
2018-04-02T03:44:43.800Z,1000.97
2018-04-02T03:45:43.767Z,1000.93
2018-04-02T03:46:43.736Z,1000.97
2018-04-02T03:47:43.708Z,1000.97
2018-04-02T03:48:43.678Z,1000.99
2018-04-02T03:49:43.649Z,1000.99
2018-04-02T03:50:43.619Z,1000.98
2018-04-02T03:51:43.590Z,1000.91
2018-04-02T03:52:43.560Z,1000.9
2018-04-02T03:53:43.531Z,1000.86
2018-04-02T03:54:43.501Z,1000.81
2018-04-02T03:55:43.473Z,1000.81
2018-04-02T03:56:43.448Z,1000.8
2018-04-02T03:57:43.413Z,1000.79
2018-04-02T03:58:43.389Z,1000.79
2018-04-02T03:59:43.355Z,1000.79
2018-04-02T04:00:43.327Z,1000.81
2018-04-02T04:01:43.296Z,1000.79
2018-04-02T04:02:43.267Z,1000.79
2018-04-02T04:03:43.236Z,1000.8
2018-04-02T04:04:43.209Z,1000.84
2018-04-02T04:05:43.177Z,1000.87
2018-04-02T04:06:43.149Z,1000.92
2018-04-02T04:07:43.119Z,1000.95
2018-04-02T04:08:43.089Z,1000.98
2018-04-02T04:09:43.060Z,1000.96
2018-04-02T04:10:43.031Z,1000.93
2018-04-02T04:11:43.305Z,1000.99
2018-04-02T04:12:42.972Z,1000.95
2018-04-02T04:13:42.946Z,1000.95
2018-04-02T04:14:42.915Z,1001.01
2018-04-02T04:15:42.882Z,1001.02
2018-04-02T04:16:42.854Z,1001.01
2018-04-02T04:17:42.825Z,1000.99
2018-04-02T04:18:42.796Z,1000.96
2018-04-02T04:19:42.767Z,1001.02
2018-04-02T04:20:42.736Z,1000.98
2018-04-02T04:21:42.709Z,1000.94
2018-04-02T04:22:42.678Z,1000.94
2018-04-02T04:23:42.647Z,1000.97
2018-04-02T04:24:42.619Z,1000.96
2018-04-02T04:25:42.591Z,1000.94
2018-04-02T04:26:42.558Z,1000.96
2018-04-02T04:27:42.529Z,1000.95
2018-04-02T04:28:42.502Z,1000.95
2018-04-02T04:29:42.472Z,1000.96
2018-04-02T04:30:42.443Z,1000.95
2018-04-02T04:31:42.413Z,1000.93
2018-04-02T04:32:42.393Z,1000.91
2018-04-02T04:33:42.356Z,1000.89
2018-04-02T04:34:42.325Z,1000.92
2018-04-02T04:35:42.297Z,1000.92
2018-04-02T04:36:42.267Z,1000.86
2018-04-02T04:37:42.237Z,1000.88
2018-04-02T04:38:42.209Z,1000.81
2018-04-02T04:39:42.180Z,1000.82
2018-04-02T04:40:42.152Z,1000.82
2018-04-02T04:41:42.122Z,1000.81
2018-04-02T04:42:42.095Z,1000.82
2018-04-02T04:43:42.064Z,1000.79
2018-04-02T04:44:42.035Z,1000.74
2018-04-02T04:45:42.005Z,1000.74
2018-04-02T04:46:41.977Z,1000.75
2018-04-02T04:47:41.954Z,1000.77
2018-04-02T04:48:41.919Z,1000.76
2018-04-02T04:49:41.891Z,1000.72
2018-04-02T04:50:41.862Z,1000.68
2018-04-02T04:51:41.833Z,1000.67
2018-04-02T04:52:41.803Z,1000.65
2018-04-02T04:53:41.774Z,1000.67
2018-04-02T04:54:41.752Z,1000.66
2018-04-02T04:55:41.718Z,1000.66
2018-04-02T04:56:41.691Z,1000.64
2018-04-02T04:57:41.660Z,1000.63
2018-04-02T04:58:41.632Z,1000.61
2018-04-02T04:59:41.602Z,1000.57
2018-04-02T05:00:41.575Z,1000.56
2018-04-02T05:01:41.545Z,1000.58
2018-04-02T05:02:41.515Z,1000.57
2018-04-02T05:03:41.487Z,1000.56
2018-04-02T05:04:41.457Z,1000.54
2018-04-02T05:05:41.434Z,1000.52
2018-04-02T05:06:41.404Z,1000.56
2018-04-02T05:07:41.371Z,1000.53
2018-04-02T05:08:41.342Z,1000.51
2018-04-02T05:09:41.313Z,1000.54
2018-04-02T05:10:41.290Z,1000.51
2018-04-02T05:11:41.256Z,1000.47
2018-04-02T05:12:41.225Z,1000.48
2018-04-02T05:13:41.198Z,1000.47
2018-04-02T05:14:41.167Z,1000.43
2018-04-02T05:15:41.142Z,1000.41
2018-04-02T05:16:41.111Z,1000.46
2018-04-02T05:17:41.086Z,1000.43
2018-04-02T05:18:41.053Z,1000.43
2018-04-02T05:19:41.026Z,1000.4
2018-04-02T05:20:40.995Z,1000.39
2018-04-02T05:21:40.964Z,1000.38
2018-04-02T05:22:40.936Z,1000.37
2018-04-02T05:23:40.906Z,1000.35
2018-04-02T05:24:40.879Z,1000.34
2018-04-02T05:25:40.848Z,1000.34
2018-04-02T05:26:40.820Z,1000.38
2018-04-02T05:27:40.790Z,1000.34
2018-04-02T05:28:40.762Z,1000.3
2018-04-02T05:29:40.730Z,1000.33
2018-04-02T05:30:40.702Z,1000.32
2018-04-02T05:31:40.673Z,1000.35
2018-04-02T05:32:40.645Z,1000.37
2018-04-02T05:33:40.615Z,1000.34
2018-04-02T05:34:40.586Z,1000.33
2018-04-02T05:35:40.560Z,1000.34
2018-04-02T05:36:40.528Z,1000.33
2018-04-02T05:37:40.499Z,1000.33
2018-04-02T05:38:40.471Z,1000.29
2018-04-02T05:39:40.447Z,1000.3
2018-04-02T05:40:40.412Z,1000.31
2018-04-02T05:41:40.384Z,1000.26
2018-04-02T05:42:40.355Z,1000.27
2018-04-02T05:43:40.326Z,1000.29
2018-04-02T05:44:40.298Z,1000.25
2018-04-02T05:45:40.267Z,1000.25
2018-04-02T05:46:40.240Z,1000.27
2018-04-02T05:47:40.209Z,1000.3
2018-04-02T05:48:40.181Z,1000.24
2018-04-02T05:49:40.152Z,1000.25
2018-04-02T05:50:40.125Z,1000.24
2018-04-02T05:51:40.096Z,1000.23
2018-04-02T05:52:40.068Z,1000.2
2018-04-02T05:53:40.039Z,1000.2
2018-04-02T05:54:40.010Z,1000.19
2018-04-02T05:55:39.983Z,1000.17
2018-04-02T05:56:39.954Z,1000.14
2018-04-02T05:57:39.934Z,1000.14
2018-04-02T05:58:39.897Z,1000.1
2018-04-02T05:59:39.880Z,1000.08
2018-04-02T06:00:39.841Z,1000.11
2018-04-02T06:01:39.811Z,1000.13
2018-04-02T06:02:39.782Z,1000.1
2018-04-02T06:03:39.754Z,1000.12
2018-04-02T06:04:39.727Z,1000.12
2018-04-02T06:05:39.697Z,1000.1
2018-04-02T06:06:39.703Z,1000.14
2018-04-02T06:07:39.642Z,1000.14
2018-04-02T06:08:39.614Z,1000.09
2018-04-02T06:09:39.591Z,1000.1
2018-04-02T06:10:39.556Z,1000.08
2018-04-02T06:11:39.529Z,1000.06
2018-04-02T06:12:39.500Z,1000.04
2018-04-02T06:13:39.495Z,1000.04
2018-04-02T06:14:39.488Z,1000.06
2018-04-02T06:15:39.416Z,1000.05
2018-04-02T06:16:39.473Z,1000.02
2018-04-02T06:17:39.360Z,1000.02
2018-04-02T06:18:39.332Z,1000
2018-04-02T06:19:39.304Z,1000
2018-04-02T06:20:39.274Z,1000.01
2018-04-02T06:21:39.248Z,999.97
2018-04-02T06:22:39.219Z,999.98
2018-04-02T06:23:39.192Z,999.98
2018-04-02T06:24:39.164Z,999.97
2018-04-02T06:25:39.138Z,999.9
2018-04-02T06:26:39.109Z,999.88
2018-04-02T06:27:39.082Z,999.89
2018-04-02T06:28:39.054Z,999.91
2018-04-02T06:29:39.028Z,999.92
2018-04-02T06:30:39.001Z,999.9
2018-04-02T06:31:38.992Z,999.86
2018-04-02T06:32:38.944Z,999.84
2018-04-02T06:33:38.918Z,999.85
2018-04-02T06:34:38.891Z,999.89
2018-04-02T06:35:38.869Z,999.85
2018-04-02T06:36:38.839Z,999.88
2018-04-02T06:37:38.812Z,999.86
2018-04-02T06:38:38.785Z,999.89
2018-04-02T06:39:38.760Z,999.87
2018-04-02T06:40:38.732Z,999.86
2018-04-02T06:41:38.705Z,999.87
2018-04-02T06:42:38.679Z,999.85
2018-04-02T06:43:38.654Z,999.8
2018-04-02T06:44:38.626Z,999.81
2018-04-02T06:45:38.601Z,999.81
2018-04-02T06:46:38.575Z,999.79
2018-04-02T06:47:38.549Z,999.78
2018-04-02T06:48:38.527Z,999.73
2018-04-02T06:49:38.497Z,999.7
2018-04-02T06:50:38.472Z,999.73
2018-04-02T06:51:38.446Z,999.71
2018-04-02T06:52:38.419Z,999.75
2018-04-02T06:53:38.393Z,999.74
2018-04-02T06:54:38.378Z,999.74
2018-04-02T06:55:38.344Z,999.72
2018-04-02T06:56:38.316Z,999.76
2018-04-02T06:57:38.294Z,999.75
2018-04-02T06:58:38.265Z,999.76
2018-04-02T06:59:38.242Z,999.75
2018-04-02T07:00:38.215Z,999.78
2018-04-02T07:01:38.191Z,999.72
2018-04-02T07:02:38.165Z,999.69
2018-04-02T07:03:38.140Z,999.71
2018-04-02T07:04:38.115Z,999.75
2018-04-02T07:05:38.091Z,999.72
2018-04-02T07:06:38.066Z,999.74
2018-04-02T07:07:38.039Z,999.77
2018-04-02T07:08:38.016Z,999.78
2018-04-02T07:09:37.990Z,999.76
2018-04-02T07:10:37.966Z,999.8
2018-04-02T07:11:37.943Z,999.75
2018-04-02T07:12:37.917Z,999.73
2018-04-02T07:13:37.892Z,999.7
2018-04-02T07:14:37.867Z,999.67
2018-04-02T07:15:37.844Z,999.65
2018-04-02T07:16:37.819Z,999.66
2018-04-02T07:17:37.797Z,999.64
2018-04-02T07:18:37.773Z,999.65
2018-04-02T07:19:37.745Z,999.63
2018-04-02T07:20:37.721Z,999.62
2018-04-02T07:21:37.697Z,999.63
2018-04-02T07:22:37.674Z,999.62
2018-04-02T07:23:37.647Z,999.62
2018-04-02T07:24:37.623Z,999.63
2018-04-02T07:25:37.599Z,999.64
2018-04-02T07:26:37.575Z,999.62
2018-04-02T07:27:37.550Z,999.64
2018-04-02T07:28:37.525Z,999.67
2018-04-02T07:29:37.500Z,999.6
2018-04-02T07:30:37.480Z,999.61
2018-04-02T07:31:37.453Z,999.62
2018-04-02T07:32:37.428Z,999.54
2018-04-02T07:33:37.405Z,999.54
2018-04-02T07:34:37.381Z,999.5
2018-04-02T07:35:37.358Z,999.55
2018-04-02T07:36:37.333Z,999.51
2018-04-02T07:37:37.309Z,999.48
2018-04-02T07:38:37.287Z,999.44
2018-04-02T07:39:37.271Z,999.51
2018-04-02T07:40:37.240Z,999.47
2018-04-02T07:41:37.216Z,999.48
2018-04-02T07:42:37.194Z,999.46
2018-04-02T07:43:37.170Z,999.47
2018-04-02T07:44:37.146Z,999.43
2018-04-02T07:45:37.124Z,999.44
2018-04-02T07:46:37.100Z,999.38
2018-04-02T07:47:37.078Z,999.41
2018-04-02T07:48:37.055Z,999.4
2018-04-02T07:49:37.031Z,999.4
2018-04-02T07:50:37.031Z,999.4
2018-04-02T07:51:36.990Z,999.41
2018-04-02T07:52:36.982Z,999.35
2018-04-02T07:53:36.947Z,999.34
2018-04-02T07:54:36.921Z,999.39
2018-04-02T07:55:36.897Z,999.37
2018-04-02T07:56:36.876Z,999.37
2018-04-02T07:57:36.853Z,999.32
2018-04-02T07:58:36.832Z,999.33
2018-04-02T07:59:36.811Z,999.32
2018-04-02T08:00:36.789Z,999.3
2018-04-02T08:01:36.768Z,999.3
2018-04-02T08:02:36.745Z,999.24
2018-04-02T08:03:36.724Z,999.3
2018-04-02T08:04:36.703Z,999.28
2018-04-02T08:05:36.784Z,999.26
2018-04-02T08:06:36.660Z,999.29
2018-04-02T08:07:36.639Z,999.23
2018-04-02T08:08:36.647Z,999.28
2018-04-02T08:09:36.597Z,999.22
2018-04-02T08:10:36.577Z,999.22
2018-04-02T08:11:36.560Z,999.21
2018-04-02T08:12:36.537Z,999.21
2018-04-02T08:13:36.513Z,999.21
2018-04-02T08:14:36.498Z,999.13
2018-04-02T08:15:36.473Z,999.15
2018-04-02T08:16:36.453Z,999.13
2018-04-02T08:17:36.431Z,999.17
2018-04-02T08:18:36.411Z,999.16
2018-04-02T08:19:36.391Z,999.18
2018-04-02T08:20:36.369Z,999.13
2018-04-02T08:21:36.348Z,999.13
2018-04-02T08:22:36.328Z,999.07
2018-04-02T08:23:36.307Z,999.09
2018-04-02T08:24:36.286Z,999.07
2018-04-02T08:25:36.265Z,999.08
2018-04-02T08:26:36.246Z,999.05
2018-04-02T08:27:36.226Z,999
2018-04-02T08:28:36.203Z,999
2018-04-02T08:29:36.184Z,998.96
2018-04-02T08:30:36.166Z,998.94
2018-04-02T08:31:36.143Z,998.91
2018-04-02T08:32:36.152Z,998.89
2018-04-02T08:33:36.103Z,998.9
2018-04-02T08:34:36.084Z,998.86
2018-04-02T08:35:36.061Z,998.86
2018-04-02T08:36:36.042Z,998.87
2018-04-02T08:37:36.023Z,998.87
2018-04-02T08:38:36.003Z,998.89
2018-04-02T08:39:35.983Z,998.84
2018-04-02T08:40:35.972Z,998.85
2018-04-02T08:41:35.944Z,998.84
2018-04-02T08:42:35.923Z,998.81
2018-04-02T08:43:35.950Z,998.82
2018-04-02T08:44:35.884Z,998.82
2018-04-02T08:45:35.865Z,998.79
2018-04-02T08:46:35.845Z,998.81
2018-04-02T08:47:35.826Z,998.83
2018-04-02T08:48:35.806Z,998.83
2018-04-02T08:49:35.792Z,998.81
2018-04-02T08:50:35.767Z,998.79
2018-04-02T08:51:35.747Z,998.83
2018-04-02T08:52:35.728Z,998.82
2018-04-02T08:53:35.708Z,998.79
2018-04-02T08:54:35.690Z,998.79
2018-04-02T08:55:35.672Z,998.77
2018-04-02T08:56:35.652Z,998.79
2018-04-02T08:57:35.633Z,998.78
2018-04-02T08:58:35.614Z,998.82
2018-04-02T08:59:35.597Z,998.74
2018-04-02T09:00:35.577Z,998.74
2018-04-02T09:01:35.558Z,998.76
2018-04-02T09:02:35.541Z,998.7
2018-04-02T09:03:35.534Z,998.75
2018-04-02T09:04:35.504Z,998.7
2018-04-02T09:05:35.493Z,998.7
2018-04-02T09:06:35.468Z,998.69
2018-04-02T09:07:35.450Z,998.67
2018-04-02T09:08:35.431Z,998.67
2018-04-02T09:09:35.416Z,998.68
2018-04-02T09:10:35.396Z,998.68
2018-04-02T09:11:35.378Z,998.68
2018-04-02T09:12:35.359Z,998.71
2018-04-02T09:13:35.343Z,998.69
2018-04-02T09:14:35.326Z,998.64
2018-04-02T09:15:35.308Z,998.66
2018-04-02T09:16:35.290Z,998.67
2018-04-02T09:17:35.274Z,998.6
2018-04-02T09:18:35.257Z,998.57
2018-04-02T09:19:35.241Z,998.62
2018-04-02T09:20:35.219Z,998.58
2018-04-02T09:21:35.204Z,998.53
2018-04-02T09:22:35.187Z,998.5
2018-04-02T09:23:35.169Z,998.48
2018-04-02T09:24:35.152Z,998.53
2018-04-02T09:25:35.134Z,998.49
2018-04-02T09:26:35.116Z,998.44
2018-04-02T09:27:35.100Z,998.44
2018-04-02T09:28:35.083Z,998.46
2018-04-02T09:29:35.067Z,998.48
2018-04-02T09:30:35.049Z,998.42
2018-04-02T09:31:35.032Z,998.42
2018-04-02T09:32:35.016Z,998.42
2018-04-02T09:33:35.016Z,998.4
2018-04-02T09:34:34.982Z,998.38
2018-04-02T09:35:34.966Z,998.38
2018-04-02T09:36:34.957Z,998.35
2018-04-02T09:37:34.936Z,998.32
2018-04-02T09:38:34.919Z,998.3
2018-04-02T09:39:34.899Z,998.27
2018-04-02T09:40:34.884Z,998.26
2018-04-02T09:41:34.868Z,998.23
2018-04-02T09:42:34.852Z,998.22
2018-04-02T09:43:34.836Z,998.2
2018-04-02T09:44:34.820Z,998.19
2018-04-02T09:45:34.805Z,998.21
2018-04-02T09:46:34.789Z,998.22
2018-04-02T09:47:34.778Z,998.2
2018-04-02T09:48:34.757Z,998.17
2018-04-02T09:49:34.740Z,998.2
2018-04-02T09:50:34.729Z,998.19
2018-04-02T09:51:34.710Z,998.16
2018-04-02T09:52:34.693Z,998.13
2018-04-02T09:53:34.680Z,998.18
2018-04-02T09:54:34.662Z,998.22
2018-04-02T09:55:34.647Z,998.15
2018-04-02T09:56:34.631Z,998.11
2018-04-02T09:57:34.616Z,998.14
2018-04-02T09:58:34.600Z,998.11
2018-04-02T09:59:34.584Z,998.11
2018-04-02T10:00:34.576Z,998.09
2018-04-02T10:01:34.554Z,998.05
2018-04-02T10:02:34.539Z,998.01
2018-04-02T10:03:34.523Z,998.01
2018-04-02T10:04:34.558Z,997.96
2018-04-02T10:05:34.492Z,997.96
2018-04-02T10:06:34.477Z,997.97
2018-04-02T10:07:34.462Z,997.91
2018-04-02T10:08:34.448Z,997.9
2018-04-02T10:09:34.433Z,997.87
2018-04-02T10:10:34.457Z,997.87
2018-04-02T10:11:34.407Z,997.92
2018-04-02T10:12:34.389Z,997.93
2018-04-02T10:13:34.372Z,997.87
2018-04-02T10:14:34.357Z,997.83
2018-04-02T10:15:34.353Z,997.79
2018-04-02T10:16:34.535Z,997.8
2018-04-02T10:17:34.313Z,997.77
2018-04-02T10:18:34.302Z,997.74
2018-04-02T10:19:34.287Z,997.71
2018-04-02T10:20:34.270Z,997.72
2018-04-02T10:21:34.256Z,997.7
2018-04-02T10:22:34.241Z,997.65
2018-04-02T10:23:34.227Z,997.69
2018-04-02T10:24:34.213Z,997.63
2018-04-02T10:25:34.197Z,997.6
2018-04-02T10:26:34.183Z,997.63
2018-04-02T10:27:34.168Z,997.61
2018-04-02T10:28:34.151Z,997.53
2018-04-02T10:29:34.204Z,997.59
2018-04-02T10:30:34.122Z,997.61
2018-04-02T10:31:34.113Z,997.55
2018-04-02T10:32:34.092Z,997.48
2018-04-02T10:33:34.077Z,997.49
2018-04-02T10:34:34.064Z,997.49
2018-04-02T10:35:34.049Z,997.46
2018-04-02T10:36:34.082Z,997.4
2018-04-02T10:37:34.019Z,997.4
2018-04-02T10:38:34.001Z,997.41
2018-04-02T10:39:33.987Z,997.33
2018-04-02T10:40:33.972Z,997.34
2018-04-02T10:41:33.966Z,997.31
2018-04-02T10:42:33.942Z,997.24
2018-04-02T10:43:33.927Z,997.28
2018-04-02T10:44:33.909Z,997.27
2018-04-02T10:45:33.892Z,997.22
2018-04-02T10:46:33.877Z,997.2
2018-04-02T10:47:33.864Z,997.16
2018-04-02T10:48:33.864Z,997.16
2018-04-02T10:49:33.834Z,997.21
2018-04-02T10:50:33.819Z,997.18
2018-04-02T10:51:33.804Z,997.15
2018-04-02T10:52:33.790Z,997.11
2018-04-02T10:53:33.774Z,997.12
2018-04-02T10:54:33.760Z,997.09
2018-04-02T10:55:33.745Z,997.09
2018-04-02T10:56:33.730Z,997.1
2018-04-02T10:57:33.717Z,997.05
2018-04-02T10:58:33.703Z,997.1
2018-04-02T10:59:33.689Z,997.05
2018-04-02T11:00:33.673Z,997.04
2018-04-02T11:01:33.660Z,997.03
2018-04-02T11:02:33.647Z,997.03
2018-04-02T11:03:33.632Z,996.98
2018-04-02T11:04:33.620Z,996.94
2018-04-02T11:05:33.604Z,996.94
2018-04-02T11:06:33.592Z,996.9
2018-04-02T11:07:33.581Z,996.92
2018-04-02T11:08:33.563Z,996.89
2018-04-02T11:09:33.549Z,996.85
2018-04-02T11:10:33.536Z,996.83
2018-04-02T11:11:33.524Z,996.79
2018-04-02T11:12:33.555Z,996.78
2018-04-02T11:13:33.497Z,996.79
2018-04-02T11:14:33.483Z,996.78
2018-04-02T11:15:33.475Z,996.75
2018-04-02T11:16:33.458Z,996.67
2018-04-02T11:17:33.444Z,996.69
2018-04-02T11:18:33.432Z,996.68
2018-04-02T11:19:33.417Z,996.64
2018-04-02T11:20:33.407Z,996.68
2018-04-02T11:21:33.393Z,996.69
2018-04-02T11:22:33.381Z,996.7
2018-04-02T11:23:33.368Z,996.69
2018-04-02T11:24:33.356Z,996.65
2018-04-02T11:25:33.343Z,996.65
2018-04-02T11:26:33.333Z,996.59
2018-04-02T11:27:33.318Z,996.56
2018-04-02T11:28:33.305Z,996.6
2018-04-02T11:29:33.294Z,996.56
2018-04-02T11:30:33.280Z,996.52
2018-04-02T11:31:33.269Z,996.49
2018-04-02T11:32:33.260Z,996.52
2018-04-02T11:33:33.244Z,996.52
2018-04-02T11:34:33.230Z,996.44
2018-04-02T11:35:33.219Z,996.45
2018-04-02T11:36:33.206Z,996.46
2018-04-02T11:37:33.194Z,996.39
2018-04-02T11:38:33.186Z,996.38
2018-04-02T11:39:33.170Z,996.33
2018-04-02T11:40:33.165Z,996.33
2018-04-02T11:41:33.143Z,996.26
2018-04-02T11:42:33.132Z,996.22
2018-04-02T11:43:33.120Z,996.27
2018-04-02T11:44:33.107Z,996.3
2018-04-02T11:45:33.094Z,996.17
2018-04-02T11:46:33.081Z,996.2
2018-04-02T11:47:33.072Z,996.24
2018-04-02T11:48:33.058Z,996.23
2018-04-02T11:49:33.046Z,996.21
2018-04-02T11:50:33.034Z,996.17
2018-04-02T11:51:33.022Z,996.14
2018-04-02T11:52:33.009Z,996.1
2018-04-02T11:53:32.997Z,996.07
2018-04-02T11:54:32.984Z,996.08
2018-04-02T11:55:32.972Z,996.06
2018-04-02T11:56:32.959Z,996.11
2018-04-02T11:57:32.948Z,996.03
2018-04-02T11:58:33.082Z,996.08
2018-04-02T11:59:33.020Z,996.04
2018-04-02T12:00:33.061Z,996.01
2018-04-02T12:01:32.902Z,996.01
2018-04-02T12:02:33.077Z,996.02
2018-04-02T12:03:32.876Z,995.98
2018-04-02T12:04:32.914Z,995.97
2018-04-02T12:05:32.851Z,995.92
2018-04-02T12:06:32.839Z,995.94
2018-04-02T12:07:32.825Z,995.94
2018-04-02T12:08:32.813Z,995.96
2018-04-02T12:09:32.800Z,995.94
2018-04-02T12:10:32.787Z,995.95
2018-04-02T12:11:32.780Z,995.87
2018-04-02T12:12:32.764Z,995.89
2018-04-02T12:13:32.751Z,995.89
2018-04-02T12:14:32.738Z,995.86
2018-04-02T12:15:32.726Z,995.83
2018-04-02T12:16:32.714Z,995.81
2018-04-02T12:17:32.702Z,995.84
2018-04-02T12:18:32.689Z,995.81
2018-04-02T12:19:32.675Z,995.83